Partlow, Virginia
Current Conditions -  °F | °C
As of 9:55 AM on Thursday 30 Oct 2014 (Local Time) from K7W4 Reporting Station
Clear Clear  
Wind Chill: 52°   Ceiling: Unl
Heat Index: 52°   Visibility: 10mi
Dew Point: 41°   Wind: 3mph
Humidity: 67%   Direction: 350°N
Pressure: 30.08"   Gusts: NA
Location:  38.08°N, 77.66°W
Report Text: K7W4 301355Z AUTO 35003KT 10SM CLR 11/05 A3008 RMK AO1 T01090049
Loading
Personal Weather Stations






























Interactive Weather Map
Tropical Storm Tracking
New forecast layout! Learn more

10-Day Weather Forecast

Advertisements
Track Severe Weather on mobile